Time;durP1;ratioP1;P1;durP2;ratioP2;P2;SDS_P1;SDS_P2;PMS_P1;PMS_P2;Temp;Humidity;BMP_temperature;BMP_pressure;BME280_temperature;BME280_humidity;BME280_pressure;Samples;Min_cycle;Max_cycle;Signal;HPM_P1;HPM_P2
2024/01/12 00:00:18;;;;;;;39.83;27.13;;;-3.40;99.90;;;;;;4977732;28;20187;-72
2024/01/12 00:02:44;;;;;;;50.23;29.93;;;-3.30;99.90;;;;;;4974458;28;20443;-74
2024/01/12 00:05:09;;;;;;;53.63;32.67;;;-3.40;99.90;;;;;;4976635;28;20534;-73
2024/01/12 00:07:35;;;;;;;46.93;29.03;;;-3.40;99.90;;;;;;4978971;28;20259;-73
2024/01/12 00:10:01;;;;;;;42.87;28.40;;;-3.40;99.90;;;;;;4980636;28;20230;-73
2024/01/12 00:12:26;;;;;;;38.03;27.03;;;-3.50;99.90;;;;;;4982126;28;20204;-73
2024/01/12 00:14:52;;;;;;;48.03;29.33;;;-3.50;99.90;;;;;;4978238;28;20180;-73
2024/01/12 00:17:18;;;;;;;45.73;29.80;;;-3.50;99.90;;;;;;4975048;28;20207;-73
2024/01/12 00:19:45;;;;;;;54.10;32.40;;;-3.60;99.90;;;;;;4980722;28;20769;-72
2024/01/12 00:22:10;;;;;;;44.60;29.90;;;-3.60;99.90;;;;;;4978283;28;20435;-73
2024/01/12 00:24:36;;;;;;;48.43;31.80;;;-3.60;99.90;;;;;;4975677;28;20435;-73
2024/01/12 00:27:02;;;;;;;45.30;28.93;;;-3.60;99.90;;;;;;4982744;28;20184;-73
2024/01/12 00:29:27;;;;;;;48.30;30.33;;;-3.60;99.90;;;;;;4981947;28;20653;-73
2024/01/12 00:31:53;;;;;;;46.37;26.23;;;-3.50;99.90;;;;;;4986308;28;20211;-72
2024/01/12 00:34:19;;;;;;;41.63;27.13;;;-3.50;99.90;;;;;;4981622;28;20299;-72
2024/01/12 00:36:46;;;;;;;51.20;29.90;;;-3.50;99.90;;;;;;4979585;28;21227;-73
2024/01/12 00:39:12;;;;;;;50.00;27.93;;;-3.50;99.90;;;;;;4977023;28;20551;-73
2024/01/12 00:41:37;;;;;;;50.50;28.20;;;-3.50;99.90;;;;;;4985396;28;20441;-73
2024/01/12 00:44:04;;;;;;;51.93;31.17;;;-3.50;99.90;;;;;;4986800;28;20704;-73
2024/01/12 00:46:31;;;;;;;48.53;29.63;;;-3.50;99.90;;;;;;4978290;28;20677;-72
2024/01/12 00:48:57;;;;;;;48.57;29.40;;;-3.60;99.90;;;;;;4974496;28;20428;-73
2024/01/12 00:51:22;;;;;;;44.87;29.43;;;-3.60;99.90;;;;;;4979475;28;20446;-73
2024/01/12 00:53:48;;;;;;;47.60;29.03;;;-3.60;99.90;;;;;;4978383;28;20208;-73
2024/01/12 00:56:13;;;;;;;43.10;27.03;;;-3.60;99.90;;;;;;4978936;28;20249;-72
2024/01/12 00:58:39;;;;;;;55.43;31.87;;;-3.70;99.90;;;;;;4975512;28;20211;-73
2024/01/12 01:01:04;;;;;;;47.53;29.13;;;-3.70;99.90;;;;;;4975243;28;20211;-73
2024/01/12 01:03:30;;;;;;;48.57;30.50;;;-3.70;99.90;;;;;;4978619;28;20282;-73
2024/01/12 01:05:55;;;;;;;50.87;29.30;;;-3.80;99.90;;;;;;4974259;28;20194;-73
2024/01/12 01:08:21;;;;;;;48.33;27.67;;;-3.80;99.90;;;;;;4984528;28;20176;-73
2024/01/12 01:10:46;;;;;;;49.17;30.27;;;-3.80;99.90;;;;;;4974339;28;20255;-72
2024/01/12 01:13:13;;;;;;;44.40;29.70;;;-3.80;99.90;;;;;;4978195;28;20203;-73
2024/01/12 01:15:38;;;;;;;45.93;29.07;;;-3.80;99.90;;;;;;4982477;28;20239;-73
2024/01/12 01:18:04;;;;;;;42.83;26.20;;;-3.80;99.90;;;;;;4973443;28;20467;-73
2024/01/12 01:20:31;;;;;;;44.33;26.70;;;-3.80;99.90;;;;;;4990575;28;20635;-72
2024/01/12 01:22:56;;;;;;;46.53;28.17;;;-3.80;99.90;;;;;;4978218;28;20228;-74
2024/01/12 01:25:22;;;;;;;48.30;27.90;;;-3.80;99.90;;;;;;4974568;28;20431;-73
2024/01/12 01:27:47;;;;;;;38.60;28.90;;;-3.80;99.90;;;;;;4974170;28;20199;-73
2024/01/12 01:30:14;;;;;;;43.97;27.37;;;-3.80;99.90;;;;;;4973049;28;20184;-73
2024/01/12 01:32:39;;;;;;;46.53;27.67;;;-3.80;99.90;;;;;;4975979;28;20215;-73
2024/01/12 01:35:05;;;;;;;46.80;27.03;;;-3.80;99.90;;;;;;4977227;28;20435;-72
2024/01/12 01:37:30;;;;;;;44.00;28.60;;;-3.90;99.90;;;;;;4979289;28;20183;-73
2024/01/12 01:39:56;;;;;;;43.70;28.73;;;-3.90;99.90;;;;;;4976688;28;20212;-73
2024/01/12 01:42:22;;;;;;;42.93;27.77;;;-3.90;99.90;;;;;;4976641;28;20180;-73
2024/01/12 01:44:47;;;;;;;47.87;29.03;;;-3.90;99.90;;;;;;4976676;28;20424;-72
2024/01/12 01:47:14;;;;;;;43.40;27.27;;;-3.80;99.90;;;;;;4973189;28;20177;-73
2024/01/12 01:49:40;;;;;;;42.03;28.70;;;-3.90;99.90;;;;;;4981399;28;20679;-73
2024/01/12 01:52:06;;;;;;;43.27;28.37;;;-3.90;99.90;;;;;;4982113;28;20530;-72
2024/01/12 01:54:33;;;;;;;48.80;29.40;;;-3.90;99.90;;;;;;4980468;28;20246;-73
2024/01/12 01:56:58;;;;;;;43.83;26.97;;;-3.90;99.90;;;;;;4973798;28;20490;-73
2024/01/12 01:59:24;;;;;;;45.80;27.77;;;-4.00;99.90;;;;;;4973819;28;20799;-73
2024/01/12 02:01:50;;;;;;;44.33;27.87;;;-4.00;99.90;;;;;;4976520;28;20176;-73
2024/01/12 02:04:16;;;;;;;46.60;28.03;;;-4.00;99.90;;;;;;4981830;28;20200;-73
2024/01/12 02:06:42;;;;;;;41.73;27.00;;;-4.00;99.90;;;;;;4981047;28;20458;-72
2024/01/12 02:09:08;;;;;;;43.57;28.33;;;-4.10;99.90;;;;;;4979400;28;20443;-72
2024/01/12 02:11:33;;;;;;;48.13;27.60;;;-4.00;99.90;;;;;;4981567;28;20465;-72
2024/01/12 02:13:59;;;;;;;40.93;27.20;;;-4.00;99.90;;;;;;4984985;28;20203;-73
2024/01/12 02:16:25;;;;;;;43.20;27.20;;;-4.00;99.90;;;;;;4983158;28;20214;-73
2024/01/12 02:18:50;;;;;;;45.10;28.37;;;-3.90;99.90;;;;;;4983334;28;20207;-72
2024/01/12 02:21:16;;;;;;;47.70;28.53;;;-3.90;99.90;;;;;;4972286;28;20180;-73
2024/01/12 02:23:41;;;;;;;49.30;26.87;;;-3.90;99.90;;;;;;4973506;28;20210;-73
2024/01/12 02:26:07;;;;;;;49.03;27.37;;;-3.90;99.90;;;;;;4983519;28;20172;-72
2024/01/12 02:28:32;;;;;;;40.47;27.27;;;-3.90;99.90;;;;;;4973497;28;20198;-73
2024/01/12 02:30:59;;;;;;;41.60;26.63;;;-3.90;99.90;;;;;;4972806;28;20176;-73
2024/01/12 02:33:25;;;;;;;52.27;27.60;;;-4.00;99.90;;;;;;4974030;28;20218;-73
2024/01/12 02:35:51;;;;;;;46.67;28.60;;;-4.00;99.90;;;;;;4980628;28;20806;-72
2024/01/12 02:38:16;;;;;;;41.60;26.30;;;-4.00;99.90;;;;;;4980365;28;20463;-73
2024/01/12 02:40:42;;;;;;;44.00;26.03;;;-4.00;99.90;;;;;;4973200;28;20184;-73
2024/01/12 02:43:07;;;;;;;52.37;33.43;;;-4.00;99.90;;;;;;4972661;28;20222;-73
2024/01/12 02:45:33;;;;;;;43.27;29.17;;;-4.00;99.90;;;;;;4973300;28;20180;-72
2024/01/12 02:47:59;;;;;;;36.83;25.50;;;-4.10;99.90;;;;;;4973207;28;20172;-72
2024/01/12 02:50:24;;;;;;;56.30;28.70;;;-4.10;99.90;;;;;;4972572;28;20176;-73
2024/01/12 02:52:50;;;;;;;45.77;27.57;;;-4.10;99.90;;;;;;4973899;28;20207;-73
2024/01/12 02:55:15;;;;;;;36.23;25.57;;;-4.10;99.90;;;;;;4973053;28;20180;-72
2024/01/12 02:57:41;;;;;;;50.60;30.90;;;-4.20;99.90;;;;;;4973283;28;20578;-74
2024/01/12 03:00:07;;;;;;;46.07;27.10;;;-4.20;99.90;;;;;;4981495;28;20173;-72
2024/01/12 03:02:32;;;;;;;44.40;26.13;;;-4.20;99.90;;;;;;4980750;28;20226;-72
2024/01/12 03:04:58;;;;;;;46.67;28.50;;;-4.20;99.90;;;;;;4981850;28;20472;-72
2024/01/12 03:07:23;;;;;;;39.27;26.10;;;-4.20;99.90;;;;;;4980954;28;20606;-73
2024/01/12 03:09:49;;;;;;;42.23;25.67;;;-4.20;99.90;;;;;;4982126;28;20187;-72
2024/01/12 03:12:14;;;;;;;49.87;29.73;;;-4.20;99.90;;;;;;4980046;28;20563;-72
2024/01/12 03:14:40;;;;;;;42.90;27.17;;;-4.10;99.90;;;;;;4985584;28;20191;-73
2024/01/12 03:17:05;;;;;;;47.87;27.97;;;-4.20;99.90;;;;;;4979790;28;20306;-74
2024/01/12 03:19:32;;;;;;;40.83;26.80;;;-4.20;99.90;;;;;;4983865;28;20230;-73
2024/01/12 03:21:57;;;;;;;44.57;28.60;;;-4.10;99.90;;;;;;4980894;28;20447;-72
2024/01/12 03:24:23;;;;;;;41.37;25.20;;;-4.20;99.90;;;;;;4989924;28;20191;-73
2024/01/12 03:26:48;;;;;;;50.33;28.70;;;-4.10;99.90;;;;;;4989650;28;20185;-73
2024/01/12 03:29:14;;;;;;;42.97;24.60;;;-4.20;99.90;;;;;;4998143;28;20183;-72
2024/01/12 03:31:40;;;;;;;41.43;27.20;;;-4.20;99.90;;;;;;4998974;28;20538;-72
2024/01/12 03:34:06;;;;;;;41.70;27.43;;;-4.20;99.90;;;;;;4992345;28;20470;-73
2024/01/12 03:36:31;;;;;;;37.10;24.30;;;-4.20;99.90;;;;;;4986099;28;20609;-73
2024/01/12 03:38:57;;;;;;;40.50;26.63;;;-4.20;99.90;;;;;;4984767;28;20849;-73
2024/01/12 03:41:22;;;;;;;45.33;26.80;;;-4.30;99.90;;;;;;4998837;28;20172;-73
2024/01/12 03:43:48;;;;;;;44.20;25.67;;;-4.30;99.90;;;;;;4998750;28;20191;-72
2024/01/12 03:46:13;;;;;;;42.93;28.97;;;-4.30;99.90;;;;;;4997297;28;20183;-71
2024/01/12 03:48:41;;;;;;;42.50;25.93;;;-4.20;99.90;;;;;;4985838;28;20196;-73
2024/01/12 03:51:06;;;;;;;41.37;27.67;;;-4.30;99.90;;;;;;4982464;28;20316;-72
2024/01/12 03:53:31;;;;;;;38.83;26.07;;;-4.30;99.90;;;;;;4995518;28;20463;-73
2024/01/12 03:55:57;;;;;;;43.40;25.60;;;-4.30;99.90;;;;;;4978919;28;20551;-73
2024/01/12 03:58:23;;;;;;;40.63;24.80;;;-4.30;99.90;;;;;;4978139;28;20292;-72
2024/01/12 04:00:48;;;;;;;44.73;25.53;;;-4.30;99.90;;;;;;4989026;28;20695;-72
2024/01/12 04:03:14;;;;;;;36.80;26.33;;;-4.30;99.90;;;;;;4990743;28;20260;-73
2024/01/12 04:05:39;;;;;;;39.37;26.00;;;-4.30;99.90;;;;;;4979314;28;20180;-73
2024/01/12 04:08:05;;;;;;;44.70;27.37;;;-4.40;99.90;;;;;;4990807;28;20180;-73
2024/01/12 04:10:31;;;;;;;38.50;25.47;;;-4.40;99.90;;;;;;4983565;28;20254;-73
2024/01/12 04:12:57;;;;;;;43.77;25.50;;;-4.30;99.90;;;;;;4985433;28;20216;-73
2024/01/12 04:15:22;;;;;;;42.17;25.07;;;-4.40;99.90;;;;;;4992443;28;20608;-72
2024/01/12 04:17:48;;;;;;;41.70;26.30;;;-4.40;99.90;;;;;;4974719;28;20466;-73
2024/01/12 04:20:14;;;;;;;43.33;25.83;;;-4.40;99.90;;;;;;4975176;28;20176;-73
2024/01/12 04:22:39;;;;;;;39.23;24.63;;;-4.40;99.90;;;;;;4983889;28;20199;-73
2024/01/12 04:25:05;;;;;;;47.00;27.70;;;-4.50;99.90;;;;;;4983881;28;20184;-72
2024/01/12 04:27:31;;;;;;;40.00;25.63;;;-4.40;99.90;;;;;;4985157;28;20230;-72
2024/01/12 04:29:56;;;;;;;39.50;25.13;;;-4.40;99.90;;;;;;4988865;28;20439;-73
2024/01/12 04:32:22;;;;;;;36.70;25.57;;;-4.50;99.90;;;;;;4979796;28;20183;-73
2024/01/12 04:34:47;;;;;;;48.60;24.57;;;-4.60;99.90;;;;;;4991674;28;20183;-73
2024/01/12 04:37:13;;;;;;;41.70;24.17;;;-4.60;99.90;;;;;;4983009;28;20200;-73
2024/01/12 04:39:40;;;;;;;41.20;24.03;;;-4.70;99.90;;;;;;4984830;28;20578;-72
2024/01/12 04:42:06;;;;;;;44.53;24.83;;;-4.70;99.90;;;;;;4983219;28;20176;-73
2024/01/12 04:44:31;;;;;;;45.30;25.27;;;-4.80;99.90;;;;;;4975384;28;20794;-72
2024/01/12 04:46:57;;;;;;;34.37;22.50;;;-4.70;99.90;;;;;;4980987;28;20551;-72
2024/01/12 04:49:22;;;;;;;47.43;27.67;;;-4.70;99.90;;;;;;4987156;28;20192;-73
2024/01/12 04:51:48;;;;;;;38.67;24.97;;;-4.70;99.90;;;;;;4970671;28;20235;-73
2024/01/12 04:54:13;;;;;;;40.03;25.53;;;-4.60;99.90;;;;;;4973991;28;20243;-73
2024/01/12 04:56:39;;;;;;;43.97;26.10;;;-4.70;99.90;;;;;;4974321;28;20267;-73
2024/01/12 04:59:04;;;;;;;41.07;26.60;;;-4.70;99.90;;;;;;4975511;28;20230;-73
2024/01/12 05:01:30;;;;;;;41.10;24.53;;;-4.70;99.90;;;;;;4975618;28;20168;-73
2024/01/12 05:03:55;;;;;;;42.10;25.40;;;-4.70;99.90;;;;;;4982588;28;20265;-72
2024/01/12 05:06:21;;;;;;;40.00;23.57;;;-4.70;99.90;;;;;;4978204;28;20195;-73
2024/01/12 05:08:46;;;;;;;42.33;25.20;;;-4.80;99.90;;;;;;4979418;28;20601;-72
2024/01/12 05:11:12;;;;;;;40.43;25.07;;;-4.80;99.90;;;;;;4975159;28;20173;-73
2024/01/12 05:13:37;;;;;;;38.57;25.23;;;-4.80;99.90;;;;;;4980243;28;20218;-72
2024/01/12 05:16:03;;;;;;;42.70;27.17;;;-4.80;99.90;;;;;;4977521;28;20184;-73
2024/01/12 05:18:29;;;;;;;41.67;27.10;;;-4.80;99.90;;;;;;4989702;28;20254;-73
2024/01/12 05:20:54;;;;;;;43.33;27.03;;;-4.80;99.90;;;;;;4977619;28;20184;-72
2024/01/12 05:23:20;;;;;;;50.90;28.93;;;-4.90;99.90;;;;;;4965476;28;20659;-72
2024/01/12 05:25:46;;;;;;;43.80;26.63;;;-4.90;99.90;;;;;;4981697;28;20663;-73
2024/01/12 05:28:12;;;;;;;43.73;26.70;;;-4.90;99.90;;;;;;4993666;28;20254;-72
2024/01/12 05:30:37;;;;;;;38.97;26.37;;;-4.90;99.90;;;;;;4981901;28;20270;-73
2024/01/12 05:33:03;;;;;;;40.80;26.67;;;-5.00;99.90;;;;;;4974779;28;20643;-73
2024/01/12 05:35:28;;;;;;;47.20;28.13;;;-5.00;99.90;;;;;;4984014;28;20603;-73
2024/01/12 05:37:55;;;;;;;49.00;27.83;;;-5.00;99.90;;;;;;4982288;28;20230;-73
2024/01/12 05:40:20;;;;;;;50.60;31.27;;;-4.90;99.90;;;;;;4974265;28;20533;-73
2024/01/12 05:42:46;;;;;;;45.93;27.60;;;-4.90;99.90;;;;;;4973816;28;20464;-73
2024/01/12 05:45:12;;;;;;;46.90;29.00;;;-4.90;99.90;;;;;;4974478;28;20170;-73
2024/01/12 05:47:38;;;;;;;43.53;30.87;;;-4.90;99.90;;;;;;4974092;28;20206;-73
2024/01/12 05:50:06;;;;;;;45.60;32.60;;;-4.80;99.90;;;;;;4974462;28;20266;-73
2024/01/12 05:52:32;;;;;;;54.23;31.40;;;-4.80;99.90;;;;;;4982468;28;20502;-73
2024/01/12 05:54:57;;;;;;;54.50;30.40;;;-4.80;99.90;;;;;;4982177;28;20995;-73
2024/01/12 05:57:23;;;;;;;44.47;29.37;;;-4.70;99.90;;;;;;4973143;28;20500;-73
2024/01/12 05:59:48;;;;;;;55.47;32.60;;;-4.80;99.90;;;;;;4974122;28;20721;-73
2024/01/12 06:02:15;;;;;;;51.17;32.13;;;-4.80;99.90;;;;;;4978126;28;20187;-73
2024/01/12 06:04:41;;;;;;;51.07;33.57;;;-4.80;99.90;;;;;;4980164;28;20187;-73
2024/01/12 06:07:06;;;;;;;49.23;31.80;;;-4.90;99.90;;;;;;4974769;28;20443;-73
2024/01/12 06:09:32;;;;;;;59.57;34.47;;;-4.90;99.90;;;;;;4979299;28;20180;-72
2024/01/12 06:11:57;;;;;;;56.97;36.33;;;-4.80;99.90;;;;;;4973064;28;20180;-73
2024/01/12 06:14:23;;;;;;;57.13;33.73;;;-4.80;99.90;;;;;;4976117;28;20207;-72
2024/01/12 06:16:48;;;;;;;55.57;33.60;;;-4.90;99.90;;;;;;4985629;28;20656;-73
2024/01/12 06:19:14;;;;;;;47.77;31.80;;;-4.90;99.90;;;;;;4991130;28;20684;-73
2024/01/12 06:21:41;;;;;;;51.50;33.23;;;-4.90;99.90;;;;;;4977302;28;20180;-73
2024/01/12 06:24:08;;;;;;;59.03;34.30;;;-4.80;99.90;;;;;;4972439;28;20538;-73
2024/01/12 06:26:33;;;;;;;53.40;34.50;;;-4.90;99.90;;;;;;4980546;28;20432;-73
2024/01/12 06:28:59;;;;;;;55.97;34.93;;;-4.90;99.90;;;;;;4976260;28;20438;-73
2024/01/12 06:31:29;;;;;;;65.67;35.30;;;-4.90;99.90;;;;;;4974431;28;20204;-72
2024/01/12 06:33:55;;;;;;;59.57;35.23;;;-5.00;99.90;;;;;;4988287;28;20707;-73
2024/01/12 06:36:20;;;;;;;64.00;35.40;;;-5.10;99.90;;;;;;4976407;28;20453;-74
2024/01/12 06:38:46;;;;;;;56.67;33.30;;;-5.10;99.90;;;;;;4983965;28;20261;-73
2024/01/12 06:41:11;;;;;;;54.07;31.17;;;-5.20;99.90;;;;;;4972940;28;20177;-73
2024/01/12 06:43:37;;;;;;;48.73;31.30;;;-5.20;99.90;;;;;;4975046;28;20286;-72
2024/01/12 06:46:05;;;;;;;49.50;32.40;;;-5.20;99.90;;;;;;4973241;28;20665;-72
2024/01/12 06:48:30;;;;;;;44.50;28.77;;;-5.20;99.90;;;;;;4972950;28;20198;-73
2024/01/12 06:50:56;;;;;;;55.10;32.20;;;-5.30;99.90;;;;;;4972936;28;20439;-73
2024/01/12 06:53:22;;;;;;;49.13;27.87;;;-5.30;99.90;;;;;;4980506;28;20203;-72
2024/01/12 06:55:47;;;;;;;54.00;30.13;;;-5.20;99.90;;;;;;4977553;28;20184;-72
2024/01/12 06:58:12;;;;;;;60.43;30.60;;;-5.20;99.90;;;;;;4974161;28;20231;-72
2024/01/12 07:00:38;;;;;;;53.70;31.03;;;-5.20;99.90;;;;;;4981419;28;20252;-73
2024/01/12 07:03:04;;;;;;;54.17;32.27;;;-5.20;99.90;;;;;;4972307;28;20227;-72
2024/01/12 07:05:29;;;;;;;51.00;32.87;;;-5.10;99.90;;;;;;4984603;28;20175;-72
2024/01/12 07:07:55;;;;;;;44.07;27.70;;;-5.10;99.90;;;;;;4980597;28;20187;-73
2024/01/12 07:10:21;;;;;;;53.33;30.17;;;-5.10;99.90;;;;;;4983754;28;20224;-73
2024/01/12 07:12:47;;;;;;;59.03;30.33;;;-5.10;99.90;;;;;;4974073;28;20204;-72
2024/01/12 07:15:13;;;;;;;53.33;32.47;;;-5.10;99.90;;;;;;4973195;28;20179;-71
2024/01/12 07:17:38;;;;;;;46.60;27.80;;;-5.10;99.90;;;;;;4972301;28;20514;-73
2024/01/12 07:20:06;;;;;;;43.97;26.03;;;-5.00;99.90;;;;;;4974123;28;20208;-72
2024/01/12 07:22:31;;;;;;;49.70;30.10;;;-5.00;99.90;;;;;;4975013;28;20609;-73
2024/01/12 07:24:57;;;;;;;45.47;29.93;;;-5.00;99.90;;;;;;4973220;28;20446;-71
2024/01/12 07:27:22;;;;;;;48.80;30.70;;;-5.00;99.90;;;;;;4973820;28;20183;-73
2024/01/12 07:29:48;;;;;;;50.50;29.00;;;-5.00;99.90;;;;;;4973275;28;20180;-71
2024/01/12 07:32:13;;;;;;;44.93;27.33;;;-5.00;99.90;;;;;;4972820;28;20650;-70
2024/01/12 07:34:39;;;;;;;48.77;29.00;;;-5.00;99.90;;;;;;4965505;28;20196;-75
2024/01/12 07:37:04;;;;;;;49.30;28.50;;;-4.90;99.90;;;;;;4979087;28;20193;-72
2024/01/12 07:39:30;;;;;;;52.33;29.37;;;-4.90;99.90;;;;;;4979834;28;20587;-73
2024/01/12 07:41:55;;;;;;;46.50;30.40;;;-4.90;99.90;;;;;;4979416;28;20195;-72
2024/01/12 07:44:21;;;;;;;45.20;27.67;;;-4.90;99.90;;;;;;4971613;28;20192;-71
2024/01/12 07:46:47;;;;;;;59.73;31.97;;;-4.80;99.90;;;;;;4972141;28;20185;-71
2024/01/12 07:49:13;;;;;;;49.80;30.50;;;-4.80;99.90;;;;;;4980708;28;20177;-71
2024/01/12 07:51:38;;;;;;;47.73;30.77;;;-4.70;99.90;;;;;;4975066;28;20799;-72
2024/01/12 07:54:04;;;;;;;44.47;29.53;;;-4.50;99.90;;;;;;4981568;28;20211;-72
2024/01/12 07:56:29;;;;;;;44.63;30.50;;;-4.00;99.90;;;;;;4990076;28;20242;-72
2024/01/12 07:58:57;;;;;;;44.73;28.97;;;-3.30;99.90;;;;;;4977144;28;20411;-72
2024/01/12 08:01:23;;;;;;;55.43;32.03;;;-2.60;99.90;;;;;;4979420;28;20178;-73
2024/01/12 08:03:48;;;;;;;45.87;29.10;;;-2.00;99.90;;;;;;4975972;28;20452;-72
2024/01/12 08:06:15;;;;;;;46.67;31.03;;;-1.30;99.90;;;;;;4983333;28;20184;-72
2024/01/12 08:08:40;;;;;;;45.17;30.00;;;-0.50;99.90;;;;;;4984130;28;20188;-73
2024/01/12 08:11:07;;;;;;;45.77;31.30;;;0.20;99.90;;;;;;4974950;28;20439;-71
2024/01/12 08:13:32;;;;;;;38.43;29.43;;;1.00;99.90;;;;;;4972785;28;20235;-73
2024/01/12 08:15:58;;;;;;;43.50;29.90;;;1.60;99.90;;;;;;4974909;28;20470;-72
2024/01/12 08:18:24;;;;;;;38.50;30.23;;;2.10;99.90;;;;;;4982940;28;20196;-72
2024/01/12 08:20:50;;;;;;;44.40;30.07;;;2.80;99.90;;;;;;4981635;28;20214;-72
2024/01/12 08:23:15;;;;;;;48.03;30.33;;;3.50;99.90;;;;;;4983993;28;21107;-72
2024/01/12 08:25:41;;;;;;;41.20;32.50;;;4.00;99.90;;;;;;4975038;28;20185;-72
2024/01/12 08:28:07;;;;;;;48.00;33.03;;;4.60;99.90;;;;;;4983124;28;20204;-73
2024/01/12 08:30:35;;;;;;;46.47;32.90;;;5.10;99.90;;;;;;4975431;28;20470;-72
2024/01/12 08:33:01;;;;;;;48.10;34.00;;;5.30;98.20;;;;;;4982978;28;20215;-72
2024/01/12 08:35:27;;;;;;;47.77;37.23;;;5.70;97.00;;;;;;4974214;28;20782;-72
2024/01/12 08:37:52;;;;;;;43.37;36.23;;;5.90;94.70;;;;;;4982446;28;20619;-72
2024/01/12 08:40:18;;;;;;;42.57;34.33;;;5.80;94.80;;;;;;4977983;28;20212;-72
2024/01/12 08:42:44;;;;;;;42.83;34.50;;;6.50;93.10;;;;;;4981975;28;20486;-72
2024/01/12 08:45:09;;;;;;;52.03;39.00;;;6.90;91.40;;;;;;4979943;28;20185;-73
2024/01/12 08:47:35;;;;;;;45.53;37.20;;;7.40;91.20;;;;;;4981501;28;20196;-71
2024/01/12 08:50:00;;;;;;;54.77;41.90;;;7.60;86.90;;;;;;4979736;28;20173;-71
2024/01/12 08:52:27;;;;;;;47.30;37.97;;;7.60;85.90;;;;;;4981848;28;20203;-72
2024/01/12 08:54:53;;;;;;;53.20;41.47;;;7.70;83.60;;;;;;4982628;28;20188;-72
2024/01/12 08:57:18;;;;;;;45.77;37.17;;;7.20;82.80;;;;;;4987421;28;20437;-71
2024/01/12 08:59:44;;;;;;;46.83;38.20;;;7.40;84.80;;;;;;4983241;28;20749;-72
2024/01/12 09:02:09;;;;;;;49.83;42.00;;;7.90;83.10;;;;;;4991004;28;20188;-72
2024/01/12 09:04:35;;;;;;;48.43;36.10;;;8.50;80.00;;;;;;4974302;28;20195;-72
2024/01/12 09:07:00;;;;;;;51.37;39.30;;;9.00;77.20;;;;;;4979435;28;20557;-71
2024/01/12 09:09:26;;;;;;;47.40;38.20;;;8.80;75.30;;;;;;4981728;28;20826;-71
2024/01/12 09:11:52;;;;;;;49.13;40.93;;;8.40;75.70;;;;;;4974433;28;20176;-71
2024/01/12 09:14:17;;;;;;;50.37;41.40;;;8.50;76.90;;;;;;4973978;28;20200;-71
2024/01/12 09:16:43;;;;;;;51.53;42.60;;;9.00;74.10;;;;;;4973950;28;20202;-71
2024/01/12 09:19:09;;;;;;;51.77;42.50;;;9.30;72.70;;;;;;4984152;28;20251;-71
2024/01/12 09:21:34;;;;;;;55.27;45.77;;;9.50;70.60;;;;;;4973367;28;20184;-71
2024/01/12 09:24:00;;;;;;;54.87;45.70;;;9.50;69.90;;;;;;4975069;28;20208;-72
2024/01/12 09:26:26;;;;;;;50.90;43.13;;;9.60;68.90;;;;;;4980394;28;20283;-72
2024/01/12 09:28:51;;;;;;;52.73;44.23;;;9.50;68.50;;;;;;4969150;28;20259;-71
2024/01/12 09:31:17;;;;;;;54.20;45.67;;;9.40;67.70;;;;;;4966291;28;20659;-71
2024/01/12 09:33:42;;;;;;;52.33;46.60;;;9.00;68.10;;;;;;4968844;28;20215;-71
2024/01/12 09:36:08;;;;;;;59.17;47.03;;;9.30;68.90;;;;;;4978916;28;20227;-71
2024/01/12 09:38:34;;;;;;;51.80;43.43;;;8.80;68.20;;;;;;4987393;28;20204;-72
2024/01/12 09:41:04;;;;;;;54.50;44.77;;;8.90;69.00;;;;;;4986535;28;20262;-71
2024/01/12 09:43:30;;;;;;;56.60;46.70;;;8.80;70.10;;;;;;4967892;28;20287;-72
2024/01/12 09:46:00;;;;;;;51.67;42.50;;;8.70;69.40;;;;;;4981292;28;20518;-71
2024/01/12 09:48:27;;;;;;;57.53;47.40;;;9.20;69.00;;;;;;4984206;28;20431;-72
2024/01/12 09:50:54;;;;;;;54.03;44.90;;;8.80;68.70;;;;;;4981376;28;20471;-71
2024/01/12 09:53:20;;;;;;;57.87;45.67;;;8.80;67.70;;;;;;4954934;28;20495;-71
2024/01/12 09:55:45;;;;;;;49.80;44.40;;;8.30;70.00;;;;;;4970803;28;20929;-71
2024/01/12 09:58:12;;;;;;;61.27;46.10;;;8.70;69.90;;;;;;4982852;28;20184;-71
2024/01/12 10:00:39;;;;;;;57.63;45.87;;;9.60;67.50;;;;;;4981381;28;20571;-71
2024/01/12 10:03:05;;;;;;;53.27;45.10;;;10.10;65.30;;;;;;4984373;28;20446;-71
2024/01/12 10:05:31;;;;;;;56.33;48.03;;;10.90;62.60;;;;;;4977044;28;20444;-71
2024/01/12 10:07:57;;;;;;;56.40;49.80;;;10.90;59.80;;;;;;4982240;28;20782;-71
2024/01/12 10:10:22;;;;;;;53.90;47.30;;;10.90;61.60;;;;;;4978164;28;20186;-70
2024/01/12 10:12:49;;;;;;;55.17;48.67;;;10.80;59.40;;;;;;4977905;28;20207;-71
2024/01/12 10:15:15;;;;;;;54.73;47.00;;;10.90;59.50;;;;;;4972335;28;20231;-72
2024/01/12 10:17:40;;;;;;;56.63;50.40;;;10.80;58.50;;;;;;4982050;28;20450;-71
2024/01/12 10:20:06;;;;;;;55.97;46.93;;;11.60;57.10;;;;;;4977314;28;20204;-72
2024/01/12 10:22:32;;;;;;;54.93;48.97;;;11.70;56.30;;;;;;4981869;28;20199;-71
2024/01/12 10:24:59;;;;;;;56.63;48.60;;;11.50;57.20;;;;;;4979516;28;20436;-74
2024/01/12 10:27:26;;;;;;;54.20;48.40;;;11.70;56.20;;;;;;4979382;28;20275;-70
2024/01/12 10:29:51;;;;;;;61.30;47.83;;;11.90;55.80;;;;;;4968324;28;20954;-70
2024/01/12 10:32:19;;;;;;;58.70;52.17;;;12.80;54.40;;;;;;4977509;28;20442;-70
2024/01/12 10:34:46;;;;;;;58.93;52.60;;;12.90;52.00;;;;;;4982042;28;20213;-71
2024/01/12 10:37:16;;;;;;;57.30;51.40;;;12.80;51.60;;;;;;4982592;28;21099;-71
2024/01/12 10:39:49;;;;;;;55.70;49.90;;;12.80;51.80;;;;;;4973746;28;20963;-71
2024/01/12 10:42:16;;;;;;;59.03;52.67;;;12.10;51.00;;;;;;4976275;28;20449;-71
2024/01/12 10:44:44;;;;;;;55.57;49.67;;;11.30;52.40;;;;;;4982171;28;20452;-71
2024/01/12 10:47:17;;;;;;;54.73;48.77;;;10.80;53.50;;;;;;4968854;28;20454;-71
2024/01/12 10:50:08;;;;;;;55.63;49.50;;;11.00;54.30;;;;;;4974326;28;20439;-70
2024/01/12 10:52:51;;;;;;;56.43;48.60;;;11.70;53.10;;;;;;4973580;28;20983;-70
2024/01/12 10:55:20;;;;;;;54.40;48.70;;;12.30;51.90;;;;;;4980751;28;20537;-71
2024/01/12 10:57:46;;;;;;;56.93;49.73;;;12.60;50.70;;;;;;4971906;28;20878;-71
2024/01/12 11:00:14;;;;;;;55.00;49.30;;;12.40;51.30;;;;;;4973372;28;20502;-70
2024/01/12 11:02:40;;;;;;;55.33;49.87;;;12.50;50.90;;;;;;4972740;28;20455;-70
2024/01/12 11:05:10;;;;;;;56.70;50.60;;;13.40;49.30;;;;;;4971078;28;20518;-70
2024/01/12 11:07:38;;;;;;;56.00;50.20;;;12.60;49.30;;;;;;4970815;28;20439;-70
2024/01/12 11:10:05;;;;;;;55.13;49.20;;;12.20;49.80;;;;;;4974130;28;20443;-71
2024/01/12 11:12:34;;;;;;;56.10;47.90;;;11.50;51.40;;;;;;4971075;28;20820;-72
2024/01/12 11:15:00;;;;;;;62.17;51.20;;;11.40;51.50;;;;;;4972872;28;20443;-70
2024/01/12 11:17:29;;;;;;;65.50;47.03;;;11.60;52.30;;;;;;4972477;28;20810;-70
2024/01/12 11:20:10;;;;;;;53.70;47.80;;;12.40;50.80;;;;;;4970763;28;20456;-71
2024/01/12 11:22:45;;;;;;;54.10;48.37;;;13.30;48.70;;;;;;4972012;28;20455;-70
2024/01/12 11:25:12;;;;;;;58.03;51.87;;;14.40;47.20;;;;;;4974901;28;20425;-70
2024/01/12 11:27:39;;;;;;;54.10;48.50;;;15.50;45.20;;;;;;4970452;28;20434;-71
2024/01/12 11:30:06;;;;;;;52.57;47.00;;;14.90;44.50;;;;;;4975896;28;21656;-71
2024/01/12 11:32:32;;;;;;;54.83;48.93;;;15.10;44.10;;;;;;4974251;28;20474;-70
2024/01/12 11:35:33;;;;;;;54.10;48.43;;;14.30;44.50;;;;;;4988531;28;20438;-71
2024/01/12 11:38:07;;;;;;;51.50;46.37;;;14.00;44.80;;;;;;4960897;28;20436;-71
2024/01/12 11:40:34;;;;;;;55.80;49.67;;;14.00;44.70;;;;;;4978290;28;20856;-71
2024/01/12 11:43:00;;;;;;;55.07;49.13;;;14.50;44.00;;;;;;4984606;28;20494;-70
2024/01/12 11:45:27;;;;;;;55.40;49.30;;;14.10;43.60;;;;;;4987410;28;20775;-71
2024/01/12 11:47:53;;;;;;;52.13;46.70;;;13.90;44.20;;;;;;4975506;28;20267;-71
2024/01/12 11:50:19;;;;;;;48.27;43.07;;;12.80;44.90;;;;;;4985433;28;20972;-72
2024/01/12 11:52:56;;;;;;;49.43;43.97;;;13.20;45.00;;;;;;4980188;28;20699;-71
2024/01/12 11:55:22;;;;;;;52.27;45.50;;;12.80;45.30;;;;;;4972369;28;20179;-71
2024/01/12 11:57:49;;;;;;;51.20;44.30;;;13.10;46.10;;;;;;4975817;28;20828;-72
2024/01/12 12:00:15;;;;;;;49.30;44.00;;;15.20;43.50;;;;;;4975924;28;20498;-72
2024/01/12 12:02:40;;;;;;;48.80;43.80;;;16.70;40.60;;;;;;4987194;28;20500;-71
2024/01/12 12:05:09;;;;;;;46.70;42.17;;;17.40;38.70;;;;;;4978221;28;20435;-71
2024/01/12 12:07:41;;;;;;;48.87;44.00;;;18.00;36.60;;;;;;4981269;28;20176;-72
2024/01/12 12:10:09;;;;;;;49.53;44.80;;;18.30;35.20;;;;;;4976608;28;20515;-71
2024/01/12 12:12:35;;;;;;;48.00;43.27;;;17.40;35.10;;;;;;4974486;28;20467;-70
2024/01/12 12:15:07;;;;;;;51.40;45.90;;;17.40;35.00;;;;;;4977597;28;20443;-71
2024/01/12 12:17:37;;;;;;;49.97;44.80;;;17.10;35.40;;;;;;4972238;28;20191;-70
2024/01/12 12:20:04;;;;;;;52.73;47.70;;;17.10;35.00;;;;;;4982515;28;20844;-70
2024/01/12 12:22:31;;;;;;;50.43;45.27;;;16.30;35.70;;;;;;4984807;28;21170;-71